sensor_id;sensor_type;location;lat;lon;timestamp;temperature;humidity
21844;DHT22;11084;52.482;9.108;2022-07-22T00:00:11;18.50;99.90
21844;DHT22;11084;52.482;9.108;2022-07-22T00:02:38;18.50;99.90
21844;DHT22;11084;52.482;9.108;2022-07-22T00:05:05;18.50;99.90
21844;DHT22;11084;52.482;9.108;2022-07-22T00:07:33;18.60;99.90
21844;DHT22;11084;52.482;9.108;2022-07-22T00:09:59;18.60;99.90
21844;DHT22;11084;52.482;9.108;2022-07-22T00:12:25;18.60;99.90
21844;DHT22;11084;52.482;9.108;2022-07-22T00:14:51;18.60;99.90
21844;DHT22;11084;52.482;9.108;2022-07-22T00:17:17;18.50;99.90
21844;DHT22;11084;52.482;9.108;2022-07-22T00:19:43;18.50;99.90
21844;DHT22;11084;52.482;9.108;2022-07-22T00:22:09;18.60;99.90
21844;DHT22;11084;52.482;9.108;2022-07-22T00:24:35;18.50;99.90
21844;DHT22;11084;52.482;9.108;2022-07-22T00:27:01;18.60;99.90
21844;DHT22;11084;52.482;9.108;2022-07-22T00:29:27;18.60;99.90
21844;DHT22;11084;52.482;9.108;2022-07-22T00:31:54;18.60;99.90
21844;DHT22;11084;52.482;9.108;2022-07-22T00:34:20;18.60;99.90
21844;DHT22;11084;52.482;9.108;2022-07-22T00:36:46;18.50;99.90
21844;DHT22;11084;52.482;9.108;2022-07-22T00:39:12;18.50;99.90
21844;DHT22;11084;52.482;9.108;2022-07-22T00:41:38;18.50;99.90
21844;DHT22;11084;52.482;9.108;2022-07-22T00:44:06;18.40;99.90
21844;DHT22;11084;52.482;9.108;2022-07-22T00:49:01;18.40;99.90
21844;DHT22;11084;52.482;9.108;2022-07-22T00:51:29;18.40;99.90
21844;DHT22;11084;52.482;9.108;2022-07-22T00:53:56;18.30;99.90
21844;DHT22;11084;52.482;9.108;2022-07-22T00:56:23;18.30;99.90
21844;DHT22;11084;52.482;9.108;2022-07-22T00:58:52;18.20;99.90
21844;DHT22;11084;52.482;9.108;2022-07-22T01:01:20;18.20;99.90
21844;DHT22;11084;52.482;9.108;2022-07-22T01:03:46;18.10;99.90
21844;DHT22;11084;52.482;9.108;2022-07-22T01:06:12;18.10;99.90
21844;DHT22;11084;52.482;9.108;2022-07-22T01:08:38;18.10;99.90
21844;DHT22;11084;52.482;9.108;2022-07-22T01:11:17;18.00;99.90
21844;DHT22;11084;52.482;9.108;2022-07-22T01:13:45;18.00;99.90
21844;DHT22;11084;52.482;9.108;2022-07-22T01:16:15;18.00;99.90
21844;DHT22;11084;52.482;9.108;2022-07-22T01:18:43;18.00;99.90
21844;DHT22;11084;52.482;9.108;2022-07-22T01:21:11;17.80;99.90
21844;DHT22;11084;52.482;9.108;2022-07-22T01:23:39;17.90;99.90
21844;DHT22;11084;52.482;9.108;2022-07-22T01:26:07;17.80;99.90
21844;DHT22;11084;52.482;9.108;2022-07-22T01:28:34;17.70;99.90
21844;DHT22;11084;52.482;9.108;2022-07-22T01:31:00;17.70;99.90
21844;DHT22;11084;52.482;9.108;2022-07-22T01:33:28;17.70;99.90
21844;DHT22;11084;52.482;9.108;2022-07-22T01:35:54;17.70;99.90
21844;DHT22;11084;52.482;9.108;2022-07-22T01:38:20;17.60;99.90
21844;DHT22;11084;52.482;9.108;2022-07-22T01:40:46;17.60;99.90
21844;DHT22;11084;52.482;9.108;2022-07-22T01:43:13;17.50;99.90
21844;DHT22;11084;52.482;9.108;2022-07-22T01:45:45;17.50;99.90
21844;DHT22;11084;52.482;9.108;2022-07-22T01:48:11;17.50;99.90
21844;DHT22;11084;52.482;9.108;2022-07-22T01:50:41;17.50;99.90
21844;DHT22;11084;52.482;9.108;2022-07-22T01:53:11;17.50;99.90
21844;DHT22;11084;52.482;9.108;2022-07-22T01:55:40;17.50;99.90
21844;DHT22;11084;52.482;9.108;2022-07-22T01:58:06;17.40;99.90
21844;DHT22;11084;52.482;9.108;2022-07-22T02:03:06;17.30;99.90
21844;DHT22;11084;52.482;9.108;2022-07-22T02:05:33;17.40;99.90
21844;DHT22;11084;52.482;9.108;2022-07-22T02:08:07;17.30;99.90
21844;DHT22;11084;52.482;9.108;2022-07-22T02:10:57;17.30;99.90
21844;DHT22;11084;52.482;9.108;2022-07-22T02:13:23;17.30;99.90
21844;DHT22;11084;52.482;9.108;2022-07-22T02:15:49;17.30;99.90
21844;DHT22;11084;52.482;9.108;2022-07-22T02:18:17;17.20;99.90
21844;DHT22;11084;52.482;9.108;2022-07-22T02:20:44;17.20;99.90
21844;DHT22;11084;52.482;9.108;2022-07-22T02:23:11;17.20;99.90
21844;DHT22;11084;52.482;9.108;2022-07-22T02:25:39;17.20;99.90
21844;DHT22;11084;52.482;9.108;2022-07-22T02:28:07;17.20;99.90
21844;DHT22;11084;52.482;9.108;2022-07-22T02:30:34;17.10;99.90
21844;DHT22;11084;52.482;9.108;2022-07-22T02:35:27;17.10;99.90
21844;DHT22;11084;52.482;9.108;2022-07-22T02:37:53;17.10;99.90
21844;DHT22;11084;52.482;9.108;2022-07-22T02:40:19;17.10;99.90
21844;DHT22;11084;52.482;9.108;2022-07-22T02:42:46;17.10;99.90
21844;DHT22;11084;52.482;9.108;2022-07-22T02:45:12;17.10;99.90
21844;DHT22;11084;52.482;9.108;2022-07-22T02:47:49;17.10;99.90
21844;DHT22;11084;52.482;9.108;2022-07-22T02:50:24;17.10;99.90
21844;DHT22;11084;52.482;9.108;2022-07-22T02:52:51;17.00;99.90
21844;DHT22;11084;52.482;9.108;2022-07-22T02:55:23;17.00;99.90
21844;DHT22;11084;52.482;9.108;2022-07-22T02:57:51;17.00;99.90
21844;DHT22;11084;52.482;9.108;2022-07-22T03:00:17;16.90;99.90
21844;DHT22;11084;52.482;9.108;2022-07-22T03:02:45;17.00;99.90
21844;DHT22;11084;52.482;9.108;2022-07-22T03:05:11;16.90;99.90
21844;DHT22;11084;52.482;9.108;2022-07-22T03:07:45;16.90;99.90
21844;DHT22;11084;52.482;9.108;2022-07-22T03:10:13;16.90;99.90
21844;DHT22;11084;52.482;9.108;2022-07-22T03:12:39;16.90;99.90
21844;DHT22;11084;52.482;9.108;2022-07-22T03:15:06;16.90;99.90
21844;DHT22;11084;52.482;9.108;2022-07-22T03:17:36;16.90;99.90
21844;DHT22;11084;52.482;9.108;2022-07-22T03:20:06;16.80;99.90
21844;DHT22;11084;52.482;9.108;2022-07-22T03:22:33;16.80;99.90
21844;DHT22;11084;52.482;9.108;2022-07-22T03:25:00;16.80;99.90
21844;DHT22;11084;52.482;9.108;2022-07-22T03:27:26;16.80;99.90
21844;DHT22;11084;52.482;9.108;2022-07-22T03:29:55;16.70;99.90
21844;DHT22;11084;52.482;9.108;2022-07-22T03:32:21;16.70;99.90
21844;DHT22;11084;52.482;9.108;2022-07-22T03:34:48;16.70;99.90
21844;DHT22;11084;52.482;9.108;2022-07-22T03:37:14;16.80;99.90
21844;DHT22;11084;52.482;9.108;2022-07-22T03:39:42;16.70;99.90
21844;DHT22;11084;52.482;9.108;2022-07-22T03:44:44;16.70;99.90
21844;DHT22;11084;52.482;9.108;2022-07-22T03:47:10;16.70;99.90
21844;DHT22;11084;52.482;9.108;2022-07-22T03:49:36;16.60;99.90
21844;DHT22;11084;52.482;9.108;2022-07-22T03:52:07;16.60;99.90
21844;DHT22;11084;52.482;9.108;2022-07-22T03:54:33;16.70;99.90
21844;DHT22;11084;52.482;9.108;2022-07-22T03:57:00;16.60;99.90
21844;DHT22;11084;52.482;9.108;2022-07-22T03:59:26;16.70;99.90
21844;DHT22;11084;52.482;9.108;2022-07-22T04:01:52;16.60;99.90
21844;DHT22;11084;52.482;9.108;2022-07-22T04:04:18;16.60;99.90
21844;DHT22;11084;52.482;9.108;2022-07-22T04:06:45;16.60;99.90
21844;DHT22;11084;52.482;9.108;2022-07-22T04:09:18;16.60;99.90
21844;DHT22;11084;52.482;9.108;2022-07-22T04:11:45;16.60;99.90
21844;DHT22;11084;52.482;9.108;2022-07-22T04:14:12;16.60;99.90
21844;DHT22;11084;52.482;9.108;2022-07-22T04:16:38;16.60;99.90
21844;DHT22;11084;52.482;9.108;2022-07-22T04:19:08;16.60;99.90
21844;DHT22;11084;52.482;9.108;2022-07-22T04:21:59;16.70;99.90
21844;DHT22;11084;52.482;9.108;2022-07-22T04:24:28;16.70;99.90
21844;DHT22;11084;52.482;9.108;2022-07-22T04:26:55;16.70;99.90
21844;DHT22;11084;52.482;9.108;2022-07-22T04:29:23;16.70;99.90
21844;DHT22;11084;52.482;9.108;2022-07-22T04:34:18;16.70;99.90
21844;DHT22;11084;52.482;9.108;2022-07-22T04:36:46;16.70;99.90
21844;DHT22;11084;52.482;9.108;2022-07-22T04:39:13;16.70;99.90
21844;DHT22;11084;52.482;9.108;2022-07-22T04:41:45;16.80;99.90
21844;DHT22;11084;52.482;9.108;2022-07-22T04:49:08;16.80;99.90
21844;DHT22;11084;52.482;9.108;2022-07-22T04:51:34;16.80;99.90
21844;DHT22;11084;52.482;9.108;2022-07-22T04:54:04;16.70;99.90
21844;DHT22;11084;52.482;9.108;2022-07-22T04:56:32;16.70;99.90
21844;DHT22;11084;52.482;9.108;2022-07-22T04:58:58;16.80;99.90
21844;DHT22;11084;52.482;9.108;2022-07-22T05:01:29;16.80;99.90
21844;DHT22;11084;52.482;9.108;2022-07-22T05:03:55;16.80;99.90
21844;DHT22;11084;52.482;9.108;2022-07-22T05:06:22;16.80;99.90
21844;DHT22;11084;52.482;9.108;2022-07-22T05:11:14;16.90;99.90
21844;DHT22;11084;52.482;9.108;2022-07-22T05:13:41;16.90;99.90
21844;DHT22;11084;52.482;9.108;2022-07-22T05:18:36;16.90;99.90
21844;DHT22;11084;52.482;9.108;2022-07-22T05:21:04;16.80;99.90
21844;DHT22;11084;52.482;9.108;2022-07-22T05:25:57;16.80;99.90
21844;DHT22;11084;52.482;9.108;2022-07-22T05:30:50;16.80;99.90
21844;DHT22;11084;52.482;9.108;2022-07-22T05:36:01;16.80;99.90
21844;DHT22;11084;52.482;9.108;2022-07-22T05:38:36;16.80;99.90
21844;DHT22;11084;52.482;9.108;2022-07-22T05:45:56;16.80;99.90
21844;DHT22;11084;52.482;9.108;2022-07-22T05:55:44;16.90;99.90
21844;DHT22;11084;52.482;9.108;2022-07-22T05:58:11;16.90;99.90
21844;DHT22;11084;52.482;9.108;2022-07-22T06:03:06;17.00;99.90
21844;DHT22;11084;52.482;9.108;2022-07-22T06:05:33;17.00;99.90
21844;DHT22;11084;52.482;9.108;2022-07-22T06:08:03;17.10;99.90
21844;DHT22;11084;52.482;9.108;2022-07-22T06:15:33;17.20;99.90
21844;DHT22;11084;52.482;9.108;2022-07-22T06:18:00;17.30;99.90
21844;DHT22;11084;52.482;9.108;2022-07-22T06:25:19;17.40;99.90
21844;DHT22;11084;52.482;9.108;2022-07-22T06:27:45;17.50;99.90
21844;DHT22;11084;52.482;9.108;2022-07-22T06:30:14;17.60;99.90
21844;DHT22;11084;52.482;9.108;2022-07-22T06:35:07;17.50;99.90
21844;DHT22;11084;52.482;9.108;2022-07-22T06:37:33;17.60;99.90
21844;DHT22;11084;52.482;9.108;2022-07-22T06:45:25;17.70;99.90
21844;DHT22;11084;52.482;9.108;2022-07-22T06:48:11;17.80;99.90
21844;DHT22;11084;52.482;9.108;2022-07-22T06:55:37;17.90;99.90
21844;DHT22;11084;52.482;9.108;2022-07-22T06:58:08;18.00;99.90
21844;DHT22;11084;52.482;9.108;2022-07-22T07:03:19;18.20;99.90
21844;DHT22;11084;52.482;9.108;2022-07-22T07:05:50;18.20;99.90
21844;DHT22;11084;52.482;9.108;2022-07-22T07:08:17;18.30;99.90
21844;DHT22;11084;52.482;9.108;2022-07-22T07:10:44;18.40;99.90
21844;DHT22;11084;52.482;9.108;2022-07-22T07:13:13;18.50;99.90
21844;DHT22;11084;52.482;9.108;2022-07-22T07:15:43;18.50;99.90
21844;DHT22;11084;52.482;9.108;2022-07-22T07:18:10;18.60;99.90
21844;DHT22;11084;52.482;9.108;2022-07-22T07:20:39;18.70;99.90
21844;DHT22;11084;52.482;9.108;2022-07-22T07:25:40;18.70;99.90
21844;DHT22;11084;52.482;9.108;2022-07-22T07:28:06;18.70;99.90
21844;DHT22;11084;52.482;9.108;2022-07-22T07:30:58;18.70;99.90
21844;DHT22;11084;52.482;9.108;2022-07-22T07:33:24;18.70;99.90
21844;DHT22;11084;52.482;9.108;2022-07-22T07:35:52;18.60;99.90
21844;DHT22;11084;52.482;9.108;2022-07-22T07:38:27;18.70;99.90
21844;DHT22;11084;52.482;9.108;2022-07-22T07:43:20;18.70;99.90
21844;DHT22;11084;52.482;9.108;2022-07-22T07:45:47;18.70;99.90
21844;DHT22;11084;52.482;9.108;2022-07-22T07:48:14;18.80;99.90
21844;DHT22;11084;52.482;9.108;2022-07-22T07:53:07;18.80;99.90
21844;DHT22;11084;52.482;9.108;2022-07-22T07:55:33;18.90;99.90
21844;DHT22;11084;52.482;9.108;2022-07-22T07:58:04;18.80;99.90
21844;DHT22;11084;52.482;9.108;2022-07-22T08:00:30;18.90;99.90
21844;DHT22;11084;52.482;9.108;2022-07-22T08:03:00;18.90;99.90
21844;DHT22;11084;52.482;9.108;2022-07-22T08:05:29;18.90;99.90
21844;DHT22;11084;52.482;9.108;2022-07-22T08:07:57;18.90;99.90
21844;DHT22;11084;52.482;9.108;2022-07-22T08:13:08;19.00;99.90
21844;DHT22;11084;52.482;9.108;2022-07-22T08:15:50;19.00;99.90
21844;DHT22;11084;52.482;9.108;2022-07-22T08:18:20;19.10;99.90
21844;DHT22;11084;52.482;9.108;2022-07-22T08:23:15;19.10;99.90
21844;DHT22;11084;52.482;9.108;2022-07-22T08:25:44;19.10;99.90
21844;DHT22;11084;52.482;9.108;2022-07-22T08:28:11;19.20;99.90
21844;DHT22;11084;52.482;9.108;2022-07-22T08:30:38;19.30;99.90
21844;DHT22;11084;52.482;9.108;2022-07-22T08:33:06;19.30;99.90
21844;DHT22;11084;52.482;9.108;2022-07-22T08:35:38;19.40;99.90
21844;DHT22;11084;52.482;9.108;2022-07-22T08:38:04;19.40;99.90
21844;DHT22;11084;52.482;9.108;2022-07-22T08:40:32;19.40;99.90
21844;DHT22;11084;52.482;9.108;2022-07-22T08:43:01;19.50;99.90
21844;DHT22;11084;52.482;9.108;2022-07-22T08:45:30;19.60;99.90
21844;DHT22;11084;52.482;9.108;2022-07-22T08:50:43;19.50;99.90
21844;DHT22;11084;52.482;9.108;2022-07-22T08:53:22;19.60;99.90
21844;DHT22;11084;52.482;9.108;2022-07-22T08:55:51;19.70;99.90
21844;DHT22;11084;52.482;9.108;2022-07-22T08:58:17;19.70;99.90
21844;DHT22;11084;52.482;9.108;2022-07-22T09:00:43;19.70;99.90
21844;DHT22;11084;52.482;9.108;2022-07-22T09:03:23;19.80;99.90
21844;DHT22;11084;52.482;9.108;2022-07-22T09:05:55;19.80;99.90
21844;DHT22;11084;52.482;9.108;2022-07-22T09:11:20;20.00;99.90
21844;DHT22;11084;52.482;9.108;2022-07-22T09:14:10;20.10;99.90
21844;DHT22;11084;52.482;9.108;2022-07-22T09:16:47;20.30;99.90
21844;DHT22;11084;52.482;9.108;2022-07-22T09:19:36;20.40;99.90
21844;DHT22;11084;52.482;9.108;2022-07-22T09:22:41;20.40;99.90
21844;DHT22;11084;52.482;9.108;2022-07-22T09:28:15;20.50;99.90
21844;DHT22;11084;52.482;9.108;2022-07-22T09:31:29;20.50;99.90
21844;DHT22;11084;52.482;9.108;2022-07-22T09:34:31;20.50;99.90
21844;DHT22;11084;52.482;9.108;2022-07-22T09:37:11;20.50;99.90
21844;DHT22;11084;52.482;9.108;2022-07-22T09:39:37;20.50;99.90
21844;DHT22;11084;52.482;9.108;2022-07-22T09:42:07;20.60;99.90
21844;DHT22;11084;52.482;9.108;2022-07-22T09:44:34;20.70;99.90
21844;DHT22;11084;52.482;9.108;2022-07-22T09:47:29;20.70;99.90
21844;DHT22;11084;52.482;9.108;2022-07-22T09:50:33;20.80;99.90
21844;DHT22;11084;52.482;9.108;2022-07-22T09:55:45;20.80;99.90
21844;DHT22;11084;52.482;9.108;2022-07-22T09:58:11;20.90;99.90
21844;DHT22;11084;52.482;9.108;2022-07-22T10:00:39;21.00;99.90
21844;DHT22;11084;52.482;9.108;2022-07-22T10:03:10;21.00;99.90
21844;DHT22;11084;52.482;9.108;2022-07-22T10:05:39;21.00;99.90
21844;DHT22;11084;52.482;9.108;2022-07-22T10:08:08;21.10;99.90
21844;DHT22;11084;52.482;9.108;2022-07-22T10:10:36;21.00;99.90
21844;DHT22;11084;52.482;9.108;2022-07-22T10:13:05;21.00;99.90
21844;DHT22;11084;52.482;9.108;2022-07-22T10:15:35;21.00;99.90
21844;DHT22;11084;52.482;9.108;2022-07-22T10:18:05;21.00;99.90
21844;DHT22;11084;52.482;9.108;2022-07-22T10:20:39;21.00;99.90
21844;DHT22;11084;52.482;9.108;2022-07-22T10:23:08;20.90;99.90
21844;DHT22;11084;52.482;9.108;2022-07-22T10:26:01;21.00;99.90
21844;DHT22;11084;52.482;9.108;2022-07-22T10:28:35;20.90;99.90
21844;DHT22;11084;52.482;9.108;2022-07-22T10:31:23;20.90;99.90
21844;DHT22;11084;52.482;9.108;2022-07-22T10:33:51;20.90;99.90
21844;DHT22;11084;52.482;9.108;2022-07-22T10:36:39;20.90;99.90
21844;DHT22;11084;52.482;9.108;2022-07-22T10:39:13;20.70;99.90
21844;DHT22;11084;52.482;9.108;2022-07-22T10:41:44;20.80;99.90
21844;DHT22;11084;52.482;9.108;2022-07-22T10:44:12;20.80;99.90
21844;DHT22;11084;52.482;9.108;2022-07-22T10:46:56;20.90;99.90
21844;DHT22;11084;52.482;9.108;2022-07-22T10:49:25;20.80;99.90
21844;DHT22;11084;52.482;9.108;2022-07-22T10:54:32;20.90;99.90
21844;DHT22;11084;52.482;9.108;2022-07-22T10:57:00;20.90;99.90
21844;DHT22;11084;52.482;9.108;2022-07-22T10:59:27;21.00;99.90
21844;DHT22;11084;52.482;9.108;2022-07-22T11:01:53;21.00;99.90
21844;DHT22;11084;52.482;9.108;2022-07-22T11:04:25;21.00;99.90
21844;DHT22;11084;52.482;9.108;2022-07-22T11:07:03;21.10;99.90
21844;DHT22;11084;52.482;9.108;2022-07-22T11:09:34;21.20;99.90
21844;DHT22;11084;52.482;9.108;2022-07-22T11:12:01;21.30;99.90
21844;DHT22;11084;52.482;9.108;2022-07-22T11:14:33;21.30;99.90
21844;DHT22;11084;52.482;9.108;2022-07-22T11:17:09;21.30;99.90
21844;DHT22;11084;52.482;9.108;2022-07-22T11:19:37;21.30;99.90
21844;DHT22;11084;52.482;9.108;2022-07-22T11:22:12;21.30;99.90
21844;DHT22;11084;52.482;9.108;2022-07-22T11:24:40;21.30;99.90
21844;DHT22;11084;52.482;9.108;2022-07-22T11:27:18;21.30;99.90
21844;DHT22;11084;52.482;9.108;2022-07-22T11:29:49;21.40;99.90
21844;DHT22;11084;52.482;9.108;2022-07-22T11:32:24;21.50;99.90
21844;DHT22;11084;52.482;9.108;2022-07-22T11:34:52;21.50;99.90
21844;DHT22;11084;52.482;9.108;2022-07-22T11:37:22;21.60;99.90
21844;DHT22;11084;52.482;9.108;2022-07-22T11:39:50;21.70;99.90
21844;DHT22;11084;52.482;9.108;2022-07-22T11:42:18;21.70;99.90
21844;DHT22;11084;52.482;9.108;2022-07-22T11:44:44;21.70;99.90
21844;DHT22;11084;52.482;9.108;2022-07-22T11:47:10;21.80;99.90
21844;DHT22;11084;52.482;9.108;2022-07-22T11:49:38;21.80;99.90
21844;DHT22;11084;52.482;9.108;2022-07-22T11:52:09;21.80;99.90
21844;DHT22;11084;52.482;9.108;2022-07-22T11:54:43;21.90;99.90
21844;DHT22;11084;52.482;9.108;2022-07-22T11:57:12;21.90;99.90
21844;DHT22;11084;52.482;9.108;2022-07-22T11:59:39;21.80;99.90
21844;DHT22;11084;52.482;9.108;2022-07-22T12:02:05;21.90;99.90
21844;DHT22;11084;52.482;9.108;2022-07-22T12:04:35;21.80;99.90
21844;DHT22;11084;52.482;9.108;2022-07-22T12:07:03;21.80;99.90
21844;DHT22;11084;52.482;9.108;2022-07-22T12:09:32;21.90;99.90
21844;DHT22;11084;52.482;9.108;2022-07-22T12:12:02;22.00;99.90
21844;DHT22;11084;52.482;9.108;2022-07-22T12:14:36;22.00;99.90
21844;DHT22;11084;52.482;9.108;2022-07-22T12:17:13;22.00;99.90
21844;DHT22;11084;52.482;9.108;2022-07-22T12:19:40;22.10;99.90
21844;DHT22;11084;52.482;9.108;2022-07-22T12:24:44;22.20;99.90
21844;DHT22;11084;52.482;9.108;2022-07-22T12:27:14;22.30;99.90
21844;DHT22;11084;52.482;9.108;2022-07-22T12:29:47;22.50;99.90
21844;DHT22;11084;52.482;9.108;2022-07-22T12:32:23;22.60;99.90
21844;DHT22;11084;52.482;9.108;2022-07-22T12:35:01;22.50;99.90
21844;DHT22;11084;52.482;9.108;2022-07-22T12:37:31;22.70;99.90
21844;DHT22;11084;52.482;9.108;2022-07-22T12:40:22;22.70;99.90
21844;DHT22;11084;52.482;9.108;2022-07-22T12:43:02;22.80;99.90
21844;DHT22;11084;52.482;9.108;2022-07-22T12:45:29;22.80;99.90
21844;DHT22;11084;52.482;9.108;2022-07-22T12:47:57;22.80;99.90
21844;DHT22;11084;52.482;9.108;2022-07-22T12:53:10;22.90;99.90
21844;DHT22;11084;52.482;9.108;2022-07-22T12:55:40;22.90;99.90
21844;DHT22;11084;52.482;9.108;2022-07-22T12:58:30;22.90;99.90
21844;DHT22;11084;52.482;9.108;2022-07-22T13:00:59;23.00;99.90
21844;DHT22;11084;52.482;9.108;2022-07-22T13:03:27;23.00;99.90
21844;DHT22;11084;52.482;9.108;2022-07-22T13:06:03;23.00;99.90
21844;DHT22;11084;52.482;9.108;2022-07-22T13:08:30;23.00;99.90
21844;DHT22;11084;52.482;9.108;2022-07-22T13:10:57;23.00;99.90
21844;DHT22;11084;52.482;9.108;2022-07-22T13:13:25;23.10;99.90
21844;DHT22;11084;52.482;9.108;2022-07-22T13:15:51;23.10;99.90
21844;DHT22;11084;52.482;9.108;2022-07-22T13:18:18;23.10;99.90
21844;DHT22;11084;52.482;9.108;2022-07-22T13:20:44;23.10;99.90
21844;DHT22;11084;52.482;9.108;2022-07-22T13:23:11;23.20;99.90
21844;DHT22;11084;52.482;9.108;2022-07-22T13:25:37;23.20;99.90
21844;DHT22;11084;52.482;9.108;2022-07-22T13:28:03;23.30;99.90
21844;DHT22;11084;52.482;9.108;2022-07-22T13:30:30;23.40;99.80
21844;DHT22;11084;52.482;9.108;2022-07-22T13:32:57;23.40;98.80
21844;DHT22;11084;52.482;9.108;2022-07-22T13:35:23;23.50;98.60
21844;DHT22;11084;52.482;9.108;2022-07-22T13:37:50;23.50;98.20
21844;DHT22;11084;52.482;9.108;2022-07-22T13:40:16;23.60;98.80
21844;DHT22;11084;52.482;9.108;2022-07-22T13:42:42;23.60;98.40
21844;DHT22;11084;52.482;9.108;2022-07-22T13:45:09;23.50;98.30
21844;DHT22;11084;52.482;9.108;2022-07-22T13:47:40;23.50;97.90
21844;DHT22;11084;52.482;9.108;2022-07-22T13:50:07;23.50;98.30
21844;DHT22;11084;52.482;9.108;2022-07-22T13:52:34;23.40;98.10
21844;DHT22;11084;52.482;9.108;2022-07-22T13:55:00;23.50;98.30
21844;DHT22;11084;52.482;9.108;2022-07-22T13:57:26;23.50;98.50
21844;DHT22;11084;52.482;9.108;2022-07-22T13:59:52;23.40;98.00
21844;DHT22;11084;52.482;9.108;2022-07-22T14:02:19;23.40;97.90
21844;DHT22;11084;52.482;9.108;2022-07-22T14:04:45;23.30;98.00
21844;DHT22;11084;52.482;9.108;2022-07-22T14:07:11;23.30;98.20
21844;DHT22;11084;52.482;9.108;2022-07-22T14:09:37;23.20;97.30
21844;DHT22;11084;52.482;9.108;2022-07-22T14:12:04;23.20;97.50
21844;DHT22;11084;52.482;9.108;2022-07-22T14:14:32;23.00;98.10
21844;DHT22;11084;52.482;9.108;2022-07-22T14:16:59;23.10;98.40
21844;DHT22;11084;52.482;9.108;2022-07-22T14:19:25;22.90;98.10
21844;DHT22;11084;52.482;9.108;2022-07-22T14:21:53;22.90;97.70
21844;DHT22;11084;52.482;9.108;2022-07-22T14:24:19;22.80;97.50
21844;DHT22;11084;52.482;9.108;2022-07-22T14:26:47;22.70;97.70
21844;DHT22;11084;52.482;9.108;2022-07-22T14:29:13;22.60;97.90
21844;DHT22;11084;52.482;9.108;2022-07-22T14:31:39;22.60;98.20
21844;DHT22;11084;52.482;9.108;2022-07-22T14:34:06;22.60;98.50
21844;DHT22;11084;52.482;9.108;2022-07-22T14:36:32;22.50;98.30
21844;DHT22;11084;52.482;9.108;2022-07-22T14:38:59;22.40;98.00
21844;DHT22;11084;52.482;9.108;2022-07-22T14:41:25;22.50;98.30
21844;DHT22;11084;52.482;9.108;2022-07-22T14:43:51;22.50;98.30
21844;DHT22;11084;52.482;9.108;2022-07-22T14:46:18;22.50;98.00
21844;DHT22;11084;52.482;9.108;2022-07-22T14:48:45;22.40;97.40
21844;DHT22;11084;52.482;9.108;2022-07-22T14:51:13;22.40;97.60
21844;DHT22;11084;52.482;9.108;2022-07-22T14:53:39;22.40;97.90
21844;DHT22;11084;52.482;9.108;2022-07-22T14:56:05;22.40;97.80
21844;DHT22;11084;52.482;9.108;2022-07-22T14:58:31;22.40;97.80
21844;DHT22;11084;52.482;9.108;2022-07-22T15:00:57;22.40;98.00
21844;DHT22;11084;52.482;9.108;2022-07-22T15:03:24;22.40;97.80
21844;DHT22;11084;52.482;9.108;2022-07-22T15:05:50;22.30;98.20
21844;DHT22;11084;52.482;9.108;2022-07-22T15:08:16;22.40;98.10
21844;DHT22;11084;52.482;9.108;2022-07-22T15:10:44;22.40;98.30
21844;DHT22;11084;52.482;9.108;2022-07-22T15:13:11;22.40;97.50
21844;DHT22;11084;52.482;9.108;2022-07-22T15:15:37;22.40;97.60
21844;DHT22;11084;52.482;9.108;2022-07-22T15:18:03;22.40;97.50
21844;DHT22;11084;52.482;9.108;2022-07-22T15:20:31;22.40;97.70
21844;DHT22;11084;52.482;9.108;2022-07-22T15:22:57;22.40;97.50
21844;DHT22;11084;52.482;9.108;2022-07-22T15:25:25;22.30;97.50
21844;DHT22;11084;52.482;9.108;2022-07-22T15:27:52;22.30;97.80
21844;DHT22;11084;52.482;9.108;2022-07-22T15:30:19;22.20;97.40
21844;DHT22;11084;52.482;9.108;2022-07-22T15:32:49;22.20;97.50
21844;DHT22;11084;52.482;9.108;2022-07-22T15:35:15;22.20;97.20
21844;DHT22;11084;52.482;9.108;2022-07-22T15:37:41;22.20;97.40
21844;DHT22;11084;52.482;9.108;2022-07-22T15:40:08;22.20;97.50
21844;DHT22;11084;52.482;9.108;2022-07-22T15:42:38;22.20;97.80
21844;DHT22;11084;52.482;9.108;2022-07-22T15:45:05;22.10;98.00
21844;DHT22;11084;52.482;9.108;2022-07-22T15:47:32;22.10;97.50
21844;DHT22;11084;52.482;9.108;2022-07-22T15:49:58;22.10;97.80
21844;DHT22;11084;52.482;9.108;2022-07-22T15:52:25;22.10;97.80
21844;DHT22;11084;52.482;9.108;2022-07-22T15:54:51;22.00;97.90
21844;DHT22;11084;52.482;9.108;2022-07-22T15:57:18;22.00;98.00
21844;DHT22;11084;52.482;9.108;2022-07-22T16:00:14;21.90;98.10
21844;DHT22;11084;52.482;9.108;2022-07-22T16:02:40;21.90;98.30
21844;DHT22;11084;52.482;9.108;2022-07-22T16:05:08;21.90;98.00
21844;DHT22;11084;52.482;9.108;2022-07-22T16:07:34;21.90;98.30
21844;DHT22;11084;52.482;9.108;2022-07-22T16:10:01;21.90;98.30
21844;DHT22;11084;52.482;9.108;2022-07-22T16:12:27;21.90;98.50
21844;DHT22;11084;52.482;9.108;2022-07-22T16:14:53;21.70;98.10
21844;DHT22;11084;52.482;9.108;2022-07-22T16:17:20;21.70;98.30
21844;DHT22;11084;52.482;9.108;2022-07-22T16:19:46;21.70;98.40
21844;DHT22;11084;52.482;9.108;2022-07-22T16:22:14;21.70;98.70
21844;DHT22;11084;52.482;9.108;2022-07-22T16:24:40;21.60;98.20
21844;DHT22;11084;52.482;9.108;2022-07-22T16:27:06;21.60;98.40
21844;DHT22;11084;52.482;9.108;2022-07-22T16:29:33;21.70;97.90
21844;DHT22;11084;52.482;9.108;2022-07-22T16:31:59;21.60;98.10
21844;DHT22;11084;52.482;9.108;2022-07-22T16:34:25;21.60;98.50
21844;DHT22;11084;52.482;9.108;2022-07-22T16:36:51;21.60;98.80
21844;DHT22;11084;52.482;9.108;2022-07-22T16:39:17;21.50;98.60
21844;DHT22;11084;52.482;9.108;2022-07-22T16:41:45;21.60;98.60
21844;DHT22;11084;52.482;9.108;2022-07-22T16:44:11;21.50;98.40
21844;DHT22;11084;52.482;9.108;2022-07-22T16:46:37;21.50;98.50
21844;DHT22;11084;52.482;9.108;2022-07-22T16:49:05;21.40;98.50
21844;DHT22;11084;52.482;9.108;2022-07-22T16:51:32;21.40;98.50
21844;DHT22;11084;52.482;9.108;2022-07-22T16:53:59;21.40;98.40
21844;DHT22;11084;52.482;9.108;2022-07-22T16:56:26;21.40;98.50
21844;DHT22;11084;52.482;9.108;2022-07-22T16:58:53;21.30;98.70
21844;DHT22;11084;52.482;9.108;2022-07-22T17:01:19;21.30;98.90
21844;DHT22;11084;52.482;9.108;2022-07-22T17:03:45;21.30;99.10
21844;DHT22;11084;52.482;9.108;2022-07-22T17:06:12;21.20;99.00
21844;DHT22;11084;52.482;9.108;2022-07-22T17:08:38;21.20;99.10
21844;DHT22;11084;52.482;9.108;2022-07-22T17:11:04;21.20;99.40
21844;DHT22;11084;52.482;9.108;2022-07-22T17:13:32;21.20;99.40
21844;DHT22;11084;52.482;9.108;2022-07-22T17:15:58;21.10;99.30
21844;DHT22;11084;52.482;9.108;2022-07-22T17:18:26;21.20;99.60
21844;DHT22;11084;52.482;9.108;2022-07-22T17:20:52;21.00;99.10
21844;DHT22;11084;52.482;9.108;2022-07-22T17:23:18;21.10;99.50